createdAt,value
2023-02-15T00:02:26.212Z,101914.16
2023-02-15T00:07:26.877Z,101913.13
2023-02-15T00:12:28.867Z,101912.41
2023-02-15T00:17:30.427Z,101907.94
2023-02-15T00:22:31.081Z,101901.03
2023-02-15T00:27:33.065Z,101902.41
2023-02-15T00:32:33.739Z,101902.25
2023-02-15T00:37:34.504Z,101902.97
2023-02-15T00:42:38.751Z,101899.34
2023-02-15T00:47:39.426Z,101890.81
2023-02-15T00:52:40.095Z,101891.09
2023-02-15T00:57:42.078Z,101884.03
2023-02-15T01:02:42.760Z,101878.00
2023-02-15T01:07:43.421Z,101872.78
2023-02-15T01:12:45.458Z,101870.84
2023-02-15T01:17:52.104Z,101868.78
2023-02-15T01:22:53.752Z,101868.63
2023-02-15T01:27:56.813Z,101870.13
2023-02-15T01:32:58.284Z,101865.66
2023-02-15T01:37:59.390Z,101865.41
2023-02-15T01:43:01.418Z,101856.19
2023-02-15T01:48:05.557Z,101847.28
2023-02-15T01:53:11.769Z,101846.75
2023-02-15T01:58:15.178Z,101827.63
2023-02-15T02:03:16.704Z,101830.34
2023-02-15T02:08:17.435Z,101825.63
2023-02-15T02:13:19.446Z,101815.44
2023-02-15T02:18:30.003Z,101812.03
2023-02-15T02:23:47.571Z,101804.19
2023-02-15T02:29:17.991Z,101805.81
2023-02-15T02:34:27.802Z,101801.50
2023-02-15T02:39:39.456Z,101792.66
2023-02-15T02:44:45.367Z,101790.72
2023-02-15T02:49:47.419Z,101788.50
2023-02-15T02:54:48.135Z,101790.78
2023-02-15T02:59:52.338Z,101791.66
2023-02-15T03:05:05.222Z,101789.03
2023-02-15T03:10:09.905Z,101792.31
2023-02-15T03:15:16.877Z,101788.16
2023-02-15T03:20:26.452Z,101784.31
2023-02-15T03:25:33.571Z,101786.72
2023-02-15T03:30:38.038Z,101786.88
2023-02-15T03:35:48.448Z,101783.81
2023-02-15T03:41:07.245Z,101785.50
2023-02-15T03:46:14.296Z,101790.09
2023-02-15T03:51:36.297Z,101787.13
2023-02-15T03:56:38.678Z,101780.44
2023-02-15T04:01:59.230Z,101785.09
2023-02-15T04:07:01.373Z,101784.22
2023-02-15T04:12:01.995Z,101780.44
2023-02-15T04:17:02.661Z,101778.16
2023-02-15T04:22:22.412Z,101778.91
2023-02-15T04:27:23.047Z,101783.16
2023-02-15T04:32:23.723Z,101780.66
2023-02-15T04:37:25.764Z,101773.50
2023-02-15T04:42:26.930Z,101772.69
2023-02-15T04:47:27.790Z,101767.63
2023-02-15T04:52:29.754Z,101764.63
2023-02-15T04:57:30.415Z,101760.31
2023-02-15T05:02:31.107Z,101749.41
2023-02-15T05:07:33.087Z,101751.75
2023-02-15T05:12:33.749Z,101744.28
2023-02-15T05:17:34.755Z,101738.41
2023-02-15T05:22:36.787Z,101741.63
2023-02-15T05:27:55.202Z,101739.75
2023-02-15T05:32:55.864Z,101744.88
2023-02-15T05:37:57.885Z,101739.06
2023-02-15T05:42:58.697Z,101740.50
2023-02-15T05:48:00.071Z,101743.78
2023-02-15T05:53:02.156Z,101740.16
2023-02-15T05:58:02.817Z,101734.16
2023-02-15T06:03:03.531Z,101744.00
2023-02-15T06:08:06.150Z,101744.69
2023-02-15T06:13:06.828Z,101743.19
2023-02-15T06:18:07.948Z,101741.44
2023-02-15T06:23:10.088Z,101743.59
2023-02-15T06:28:10.751Z,101747.38
2023-02-15T06:33:11.468Z,101739.56
2023-02-15T06:38:14.517Z,101727.50
2023-02-15T06:43:15.594Z,101737.66
2023-02-15T06:48:19.063Z,101738.53
2023-02-15T06:53:21.098Z,101737.19
2023-02-15T06:58:21.735Z,101740.13
2023-02-15T07:03:22.419Z,101725.94
2023-02-15T07:08:24.612Z,101721.41
2023-02-15T07:13:25.301Z,101719.59
2023-02-15T07:18:26.105Z,101718.22
2023-02-15T07:23:28.310Z,101703.97
2023-02-15T07:28:29.061Z,101698.41
2023-02-15T07:33:29.942Z,101690.25
2023-02-15T07:38:34.766Z,101696.25
2023-02-15T07:43:37.151Z,101692.56
2023-02-15T07:48:38.357Z,101681.31
2023-02-15T07:53:40.806Z,101680.97
2023-02-15T07:58:53.915Z,101677.06
2023-02-15T08:03:55.498Z,101672.06
2023-02-15T08:08:57.711Z,101670.78
2023-02-15T08:14:00.987Z,101658.56
2023-02-15T08:19:03.465Z,101652.56
2023-02-15T08:24:07.082Z,101645.59
2023-02-15T08:29:08.908Z,101640.13
2023-02-15T08:34:10.445Z,101634.59
2023-02-15T08:39:13.133Z,101628.75
2023-02-15T08:44:14.497Z,101635.78
2023-02-15T08:49:18.848Z,101632.22
2023-02-15T08:54:22.932Z,101633.22
2023-02-15T08:59:25.149Z,101625.91
2023-02-15T09:04:25.834Z,101630.47
2023-02-15T09:09:28.035Z,101619.78
2023-02-15T09:14:29.132Z,101617.38
2023-02-15T09:19:30.087Z,101623.81
2023-02-15T09:24:34.118Z,101613.78
2023-02-15T09:29:34.904Z,101614.84
2023-02-15T09:34:35.892Z,101608.16
2023-02-15T09:39:41.403Z,101610.25
2023-02-15T09:45:04.551Z,101607.97
2023-02-15T09:50:15.669Z,101603.34
2023-02-15T09:55:37.647Z,101607.03
2023-02-15T10:00:52.028Z,101606.47
2023-02-15T10:06:07.602Z,101600.69
2023-02-15T10:11:33.996Z,101595.75
2023-02-15T10:16:46.662Z,101580.03
2023-02-15T10:22:00.883Z,101577.84
2023-02-15T10:27:12.572Z,101579.88
2023-02-15T10:32:24.808Z,101577.13
2023-02-15T10:37:43.434Z,101575.38
2023-02-15T10:43:05.387Z,101563.66
2023-02-15T10:48:25.437Z,101548.03
2023-02-15T10:53:40.266Z,101544.72
2023-02-15T10:58:59.676Z,101537.00
2023-02-15T11:04:38.146Z,101541.69
2023-02-15T11:09:43.347Z,101522.06
2023-02-15T11:14:52.006Z,101518.72
2023-02-15T11:19:59.054Z,101510.88
2023-02-15T11:25:00.766Z,101512.97
2023-02-15T11:30:05.776Z,101502.75
2023-02-15T11:35:19.985Z,101495.88
2023-02-15T11:40:25.639Z,101502.03
2023-02-15T11:45:31.582Z,101501.25
2023-02-15T11:50:34.608Z,101489.34
2023-02-15T11:55:36.115Z,101491.09
2023-02-15T12:00:41.522Z,101474.72
2023-02-15T12:05:46.509Z,101474.94
2023-02-15T12:10:59.182Z,101471.50
2023-02-15T12:16:11.115Z,101462.94
2023-02-15T12:21:14.761Z,101463.78
2023-02-15T12:26:15.998Z,101450.16
2023-02-15T12:31:25.125Z,101439.78
2023-02-15T12:36:31.313Z,101436.28
2023-02-15T12:41:32.193Z,101432.09
2023-02-15T12:46:37.958Z,101421.00
2023-02-15T12:51:47.252Z,101416.66
2023-02-15T12:56:47.922Z,101408.22
2023-02-15T13:01:50.869Z,101400.44
2023-02-15T13:06:53.945Z,101401.19
2023-02-15T13:11:55.186Z,101406.59
2023-02-15T13:17:01.663Z,101399.78
2023-02-15T13:22:07.539Z,101389.41
2023-02-15T13:27:16.973Z,101398.84
2023-02-15T13:32:27.614Z,101393.75
2023-02-15T13:37:44.905Z,101392.84
2023-02-15T13:42:53.463Z,101397.19
2023-02-15T13:48:01.959Z,101398.09
2023-02-15T13:53:22.494Z,101403.28
2023-02-15T13:58:40.803Z,101397.97
2023-02-15T14:04:12.640Z,101400.47
2023-02-15T14:09:26.673Z,101394.47
2023-02-15T14:14:49.588Z,101403.91
2023-02-15T14:19:56.449Z,101401.19
2023-02-15T14:25:14.564Z,101390.66
2023-02-15T14:30:20.496Z,101377.50
2023-02-15T14:35:26.110Z,101385.97
2023-02-15T14:40:56.841Z,101391.16
2023-02-15T14:46:03.509Z,101391.88
2023-02-15T14:51:06.153Z,101394.38
2023-02-15T14:56:20.180Z,101406.22
2023-02-15T15:01:29.407Z,101395.03
2023-02-15T15:06:33.768Z,101407.69
2023-02-15T15:11:44.793Z,101403.25
2023-02-15T15:16:53.322Z,101401.25
2023-02-15T15:21:56.871Z,101407.09
2023-02-15T15:27:31.006Z,101408.38
2023-02-15T15:32:34.968Z,101397.75
2023-02-15T15:38:26.428Z,101397.41
2023-02-15T15:43:59.839Z,101406.47
2023-02-15T15:49:05.015Z,101391.50
2023-02-15T15:54:09.447Z,101387.38
2023-02-15T15:59:19.113Z,101388.78
2023-02-15T16:04:28.461Z,101386.59
2023-02-15T16:09:30.464Z,101388.88
2023-02-15T16:14:33.683Z,101387.47
2023-02-15T16:19:37.452Z,101381.84
2023-02-15T16:25:07.771Z,101389.91
2023-02-15T16:30:25.344Z,101385.91
2023-02-15T16:35:26.172Z,101391.41
2023-02-15T16:40:54.720Z,101393.03
2023-02-15T16:46:04.685Z,101380.59
2023-02-15T16:51:05.920Z,101395.78
2023-02-15T16:56:08.513Z,101387.00
2023-02-15T17:01:12.391Z,101392.69
2023-02-15T17:06:24.430Z,101375.97
2023-02-15T17:11:36.771Z,101383.31
2023-02-15T17:16:39.450Z,101385.16
2023-02-15T17:21:44.608Z,101392.50
2023-02-15T17:26:52.286Z,101384.72
2023-02-15T17:31:54.396Z,101386.22
2023-02-15T17:37:03.246Z,101381.91
2023-02-15T17:42:05.499Z,101389.09
2023-02-15T17:47:06.426Z,101391.31
2023-02-15T17:52:08.471Z,101387.56
2023-02-15T17:57:14.399Z,101392.31
2023-02-15T18:02:32.589Z,101381.72
2023-02-15T18:07:51.017Z,101391.13
2023-02-15T18:12:53.042Z,101382.22
2023-02-15T18:17:54.283Z,101382.22
2023-02-15T18:22:55.503Z,101373.47
2023-02-15T18:27:57.601Z,101375.03
2023-02-15T18:33:00.479Z,101369.88
2023-02-15T18:38:02.375Z,101383.25
2023-02-15T18:43:04.403Z,101377.59
2023-02-15T18:48:07.315Z,101378.47
2023-02-15T18:53:14.522Z,101383.59
2023-02-15T18:58:18.571Z,101384.25
2023-02-15T19:03:19.294Z,101382.16
2023-02-15T19:08:24.556Z,101389.09
2023-02-15T19:13:26.957Z,101376.03
2023-02-15T19:18:27.682Z,101368.06
2023-02-15T19:23:28.343Z,101370.59
2023-02-15T19:28:33.227Z,101368.94
2023-02-15T19:33:34.649Z,101358.94
2023-02-15T19:38:36.873Z,101358.78
2023-02-15T19:43:39.192Z,101353.94
2023-02-15T19:48:39.872Z,101357.66
2023-02-15T19:53:40.937Z,101348.81
2023-02-15T19:58:42.938Z,101336.78
2023-02-15T20:03:43.609Z,101336.84
2023-02-15T20:08:45.180Z,101325.22
2023-02-15T20:13:47.270Z,101327.91
2023-02-15T20:18:48.049Z,101319.25
2023-02-15T20:23:48.869Z,101308.34
2023-02-15T20:28:51.065Z,101301.41
2023-02-15T20:33:52.032Z,101305.47
2023-02-15T20:38:52.758Z,101310.59
2023-02-15T20:43:54.894Z,101300.31
2023-02-15T20:48:55.597Z,101309.66
2023-02-15T20:53:56.302Z,101306.50
2023-02-15T20:58:58.387Z,101305.47
2023-02-15T21:03:59.093Z,101297.94
2023-02-15T21:08:59.837Z,101300.50
2023-02-15T21:14:01.916Z,101299.53
2023-02-15T21:19:02.734Z,101296.16
2023-02-15T21:24:03.479Z,101295.19
2023-02-15T21:29:05.546Z,101290.09
2023-02-15T21:34:06.227Z,101281.50
2023-02-15T21:39:07.702Z,101285.97
2023-02-15T21:44:34.558Z,101280.66
2023-02-15T21:49:35.308Z,101286.72
2023-02-15T21:54:36.027Z,101278.03
2023-02-15T21:59:38.103Z,101277.59
2023-02-15T22:04:39.614Z,101287.72
2023-02-15T22:09:40.450Z,101284.13
2023-02-15T22:14:44.366Z,101271.28
2023-02-15T22:19:46.144Z,101277.41
2023-02-15T22:24:47.183Z,101275.00
2023-02-15T22:29:49.820Z,101272.28
2023-02-15T22:34:51.381Z,101268.94
2023-02-15T22:39:52.176Z,101275.59
2023-02-15T22:44:56.308Z,101279.13
2023-02-15T22:49:57.118Z,101280.00
2023-02-15T22:54:57.781Z,101281.63
2023-02-15T23:00:00.667Z,101283.41
2023-02-15T23:05:01.567Z,101275.69
2023-02-15T23:10:02.283Z,101276.53
2023-02-15T23:15:04.448Z,101277.09
2023-02-15T23:20:05.680Z,101286.69
2023-02-15T23:25:10.483Z,101288.44
2023-02-15T23:30:15.386Z,101291.66
2023-02-15T23:35:17.458Z,101289.09
2023-02-15T23:40:38.116Z,101285.34
2023-02-15T23:45:40.613Z,101288.09
2023-02-15T23:50:41.339Z,101286.38
2023-02-15T23:55:44.989Z,101281.91
